Time;durP1;ratioP1;P1;durP2;ratioP2;P2;SDS_P1;SDS_P2;PMS_P1;PMS_P2;Temp;Humidity;BMP_temperature;BMP_pressure;BME280_temperature;BME280_humidity;BME280_pressure;Samples;Min_cycle;Max_cycle;Signal;HPM_P1;HPM_P2
2021/03/20 00:00:48;;;;;;;5.20;2.47;;;;;8.60;102788.00;;;;5074782;28;20714;-78
2021/03/20 00:03:16;;;;;;;2.95;2.30;;;;;8.60;102793.00;;;;5089039;28;20202;-78
2021/03/20 00:05:43;;;;;;;4.32;2.65;;;;;8.60;102801.00;;;;5081662;28;20656;-78
2021/03/20 00:08:13;;;;;;;4.63;3.25;;;;;8.50;102803.00;;;;5069934;28;20256;-77
2021/03/20 00:10:40;;;;;;;5.10;3.00;;;;;8.50;102799.00;;;;5084489;28;20197;-78
2021/03/20 00:13:07;;;;;;;3.67;2.45;;;;;8.50;102808.00;;;;5070263;28;20198;-77
2021/03/20 00:15:34;;;;;;;4.25;2.58;;;;;8.50;102804.00;;;;5068559;28;20209;-77
2021/03/20 00:18:01;;;;;;;3.67;2.67;;;;;8.50;102810.00;;;;5071794;28;20198;-78
2021/03/20 00:20:33;;;;;;;5.35;2.30;;;;;8.40;102811.00;;;;5089522;28;20194;-77
2021/03/20 00:22:59;;;;;;;4.50;2.35;;;;;8.40;102803.00;;;;5089073;28;20206;-78
2021/03/20 00:25:27;;;;;;;4.20;2.50;;;;;8.40;102807.00;;;;5088903;28;20563;-78
2021/03/20 00:27:55;;;;;;;3.60;2.45;;;;;8.40;102812.00;;;;5087447;28;20201;-77
2021/03/20 00:30:23;;;;;;;4.70;2.85;;;;;8.30;102811.00;;;;5089161;28;20437;-78
2021/03/20 00:32:50;;;;;;;3.83;2.60;;;;;8.30;102801.00;;;;5088576;28;20209;-77
2021/03/20 00:35:20;;;;;;;5.07;2.70;;;;;8.30;102807.00;;;;5088602;28;20230;-78
2021/03/20 00:37:46;;;;;;;4.40;3.00;;;;;8.30;102807.00;;;;5087962;28;20206;-77
2021/03/20 00:40:16;;;;;;;3.15;2.15;;;;;8.30;102810.00;;;;5082589;28;20196;-78
2021/03/20 00:42:44;;;;;;;2.25;1.83;;;;;8.30;102806.00;;;;5068470;28;20214;-78
2021/03/20 00:45:13;;;;;;;3.42;2.35;;;;;8.20;102806.00;;;;5073514;28;20203;-78
2021/03/20 00:47:40;;;;;;;3.90;2.75;;;;;8.20;102813.00;;;;5088768;28;20201;-78
2021/03/20 00:50:09;;;;;;;3.00;2.50;;;;;8.20;102817.00;;;;5084185;28;20301;-78
2021/03/20 00:52:36;;;;;;;5.18;2.88;;;;;8.20;102816.00;;;;5076460;28;20240;-78
2021/03/20 00:55:03;;;;;;;2.70;2.38;;;;;8.20;102823.00;;;;5088630;28;20541;-78
2021/03/20 00:57:29;;;;;;;4.13;2.80;;;;;8.20;102821.00;;;;5087369;28;20194;-77
2021/03/20 00:59:57;;;;;;;3.95;2.38;;;;;8.20;102818.00;;;;5088273;28;20664;-78
2021/03/20 01:02:24;;;;;;;3.13;2.65;;;;;8.20;102817.00;;;;5088520;28;20186;-78
2021/03/20 01:04:50;;;;;;;4.15;2.47;;;;;8.10;102816.00;;;;5089246;28;20191;-78
2021/03/20 01:07:17;;;;;;;2.75;2.25;;;;;8.10;102814.00;;;;5073604;28;20211;-78
2021/03/20 01:09:44;;;;;;;3.33;2.80;;;;;8.10;102818.00;;;;5076803;28;20684;-77
2021/03/20 01:12:11;;;;;;;3.72;2.78;;;;;8.10;102817.00;;;;5088790;28;20202;-77
2021/03/20 01:14:38;;;;;;;4.28;2.78;;;;;8.10;102819.00;;;;5075830;28;20207;-77
2021/03/20 01:17:06;;;;;;;3.55;2.70;;;;;8.10;102821.00;;;;5069512;28;20206;-77
2021/03/20 01:19:33;;;;;;;3.50;2.90;;;;;8.10;102818.00;;;;5072489;28;20194;-78
2021/03/20 01:21:59;;;;;;;3.95;2.40;;;;;8.10;102826.00;;;;5072767;28;20191;-78
2021/03/20 01:24:26;;;;;;;3.50;2.40;;;;;8.10;102821.00;;;;5072256;28;20191;-78
2021/03/20 01:26:53;;;;;;;3.72;2.83;;;;;8.00;102831.00;;;;5084214;28;20206;-77
2021/03/20 01:29:20;;;;;;;3.60;2.30;;;;;8.00;102830.00;;;;5092009;28;20580;-77
2021/03/20 01:31:46;;;;;;;3.67;2.40;;;;;8.00;102828.00;;;;5091882;28;20214;-78
2021/03/20 01:34:14;;;;;;;2.88;2.28;;;;;8.00;102831.00;;;;5091595;28;20210;-77
2021/03/20 01:36:41;;;;;;;3.42;2.65;;;;;8.00;102826.00;;;;5091915;28;20209;-77
2021/03/20 01:39:07;;;;;;;2.97;2.40;;;;;8.00;102827.00;;;;5076832;28;20205;-78
2021/03/20 01:41:34;;;;;;;4.88;3.15;;;;;8.00;102832.00;;;;5073453;28;20199;-78
2021/03/20 01:44:01;;;;;;;4.43;2.90;;;;;7.90;102831.00;;;;5084030;28;20202;-78
2021/03/20 01:46:47;;;;;;;4.15;2.33;;;;;7.80;102833.00;;;;5091228;28;20201;-77
2021/03/20 01:49:21;;;;;;;3.08;2.20;;;;;7.90;102839.00;;;;5075342;28;20242;-78
2021/03/20 01:52:01;;;;;;;2.65;2.25;;;;;7.80;102833.00;;;;5078685;28;20210;-77
2021/03/20 01:54:36;;;;;;;3.28;2.63;;;;;7.80;102836.00;;;;5071928;28;20203;-77
2021/03/20 01:57:03;;;;;;;3.58;2.55;;;;;7.80;102836.00;;;;5073813;28;20202;-78
2021/03/20 01:59:31;;;;;;;3.20;2.47;;;;;7.80;102830.00;;;;5090907;28;20198;-77
2021/03/20 02:01:58;;;;;;;3.70;2.25;;;;;7.80;102833.00;;;;5092218;28;20236;-77
2021/03/20 02:04:25;;;;;;;3.83;3.03;;;;;7.70;102819.00;;;;5092153;28;20194;-77
2021/03/20 02:06:52;;;;;;;4.68;2.83;;;;;7.70;102834.00;;;;5090323;28;20301;-78
2021/03/20 02:09:19;;;;;;;3.28;2.75;;;;;7.70;102829.00;;;;5091778;28;20222;-78
2021/03/20 02:11:51;;;;;;;3.60;2.50;;;;;7.60;102822.00;;;;5091029;28;20229;-78
2021/03/20 02:14:32;;;;;;;3.17;2.50;;;;;7.60;102822.00;;;;5091859;28;20201;-77
2021/03/20 02:17:05;;;;;;;3.45;2.33;;;;;7.60;102814.00;;;;5077744;28;20198;-77
2021/03/20 02:20:03;;;;;;;5.05;2.35;;;;;7.50;102810.00;;;;5091576;28;20210;-78
2021/03/20 02:22:49;;;;;;;4.72;2.90;;;;;7.50;102811.00;;;;5072313;28;20198;-78
2021/03/20 02:25:51;;;;;;;4.10;2.40;;;;;7.40;102801.00;;;;5072214;28;20202;-77
2021/03/20 02:28:53;;;;;;;3.10;2.38;;;;;7.40;102808.00;;;;5070628;28;20544;-77
2021/03/20 02:31:38;;;;;;;3.22;2.50;;;;;7.40;102814.00;;;;5073378;28;20697;-78
2021/03/20 02:34:14;;;;;;;3.50;2.42;;;;;7.40;102807.00;;;;5091378;28;21575;-77
2021/03/20 02:37:00;;;;;;;4.45;2.70;;;;;7.40;102812.00;;;;5078875;28;20209;-77
2021/03/20 02:39:38;;;;;;;4.25;2.70;;;;;7.40;102806.00;;;;5071261;28;20203;-77
2021/03/20 02:42:11;;;;;;;4.88;2.85;;;;;7.30;102807.00;;;;5070430;28;20202;-78
2021/03/20 02:44:45;;;;;;;5.60;3.30;;;;;7.30;102801.00;;;;5081959;28;20202;-77
2021/03/20 02:47:17;;;;;;;3.88;2.72;;;;;7.30;102808.00;;;;5089782;28;20209;-77
2021/03/20 02:49:52;;;;;;;3.65;2.65;;;;;7.30;102810.00;;;;5088321;28;20961;-77
2021/03/20 02:52:24;;;;;;;4.60;2.58;;;;;7.30;102807.00;;;;5074182;28;20202;-77
2021/03/20 02:54:58;;;;;;;3.58;2.47;;;;;7.30;102805.00;;;;5070000;28;20549;-77
2021/03/20 02:57:29;;;;;;;3.95;2.78;;;;;7.20;102808.00;;;;5072488;28;20199;-78
2021/03/20 03:00:00;;;;;;;3.40;2.53;;;;;7.20;102816.00;;;;5089511;28;20197;-77
2021/03/20 03:02:30;;;;;;;3.67;2.80;;;;;7.20;102812.00;;;;5090632;28;20202;-77
2021/03/20 03:05:01;;;;;;;3.70;2.50;;;;;7.20;102814.00;;;;5089968;28;20195;-77
2021/03/20 03:07:32;;;;;;;3.30;2.58;;;;;7.20;102817.00;;;;5079135;28;20194;-77
2021/03/20 03:10:06;;;;;;;3.30;2.40;;;;;7.20;102821.00;;;;5089224;28;20255;-77
2021/03/20 03:12:41;;;;;;;3.47;2.63;;;;;7.20;102816.00;;;;5091183;28;20201;-78
2021/03/20 03:15:11;;;;;;;2.33;2.05;;;;;7.20;102819.00;;;;5090203;28;20691;-78
2021/03/20 03:17:50;;;;;;;5.78;2.65;;;;;7.10;102823.00;;;;5090687;28;20197;-77
2021/03/20 03:20:22;;;;;;;3.25;2.65;;;;;7.10;102817.00;;;;5081605;28;20207;-77
2021/03/20 03:22:52;;;;;;;3.42;2.30;;;;;7.10;102819.00;;;;5069020;28;20210;-77
2021/03/20 03:25:22;;;;;;;2.90;2.42;;;;;7.10;102822.00;;;;5075847;28;20217;-77
2021/03/20 03:27:53;;;;;;;3.85;2.55;;;;;7.10;102808.00;;;;5089775;28;20449;-77
2021/03/20 03:30:24;;;;;;;4.55;3.13;;;;;7.10;102802.00;;;;5080421;28;20747;-77
2021/03/20 03:32:55;;;;;;;6.13;2.70;;;;;7.00;102808.00;;;;5069196;28;20648;-77
2021/03/20 03:35:29;;;;;;;4.32;2.80;;;;;7.00;102812.00;;;;5068865;28;21030;-77
2021/03/20 03:38:01;;;;;;;3.88;2.53;;;;;7.00;102805.00;;;;5068746;28;20207;-77
2021/03/20 03:40:33;;;;;;;3.72;2.88;;;;;7.00;102808.00;;;;5068788;28;20195;-77
2021/03/20 03:43:00;;;;;;;4.22;2.50;;;;;7.00;102814.00;;;;5080783;28;20238;-77
2021/03/20 03:45:27;;;;;;;3.63;2.90;;;;;7.00;102812.00;;;;5089139;28;20686;-77
2021/03/20 03:47:54;;;;;;;3.75;2.90;;;;;7.00;102807.00;;;;5089337;28;20225;-78
2021/03/20 03:50:26;;;;;;;3.65;2.60;;;;;6.90;102813.00;;;;5075870;28;20233;-77
2021/03/20 03:52:53;;;;;;;4.50;2.72;;;;;7.00;102812.00;;;;5068273;28;20206;-77
2021/03/20 03:55:20;;;;;;;3.90;2.80;;;;;6.90;102812.00;;;;5069798;28;20202;-77
2021/03/20 03:58:08;;;;;;;5.47;3.08;;;;;6.80;102810.00;;;;5071146;28;20206;-77
2021/03/20 04:00:41;;;;;;;4.63;3.22;;;;;6.90;102819.00;;;;5056384;28;20355;-77
2021/03/20 04:03:27;;;;;;;5.00;3.40;;;;;6.80;102817.00;;;;5089722;28;20663;-77
2021/03/20 04:06:06;;;;;;;7.78;3.67;;;;;6.80;102815.00;;;;5069170;28;20726;-77
2021/03/20 04:08:44;;;;;;;4.97;3.13;;;;;6.80;102821.00;;;;5068682;28;20626;-78
2021/03/20 04:11:21;;;;;;;3.58;2.67;;;;;6.80;102819.00;;;;5088829;28;20243;-78
2021/03/20 04:13:54;;;;;;;3.30;2.65;;;;;6.80;102825.00;;;;5088948;28;20202;-77
2021/03/20 04:16:25;;;;;;;4.43;3.05;;;;;6.80;102821.00;;;;5089212;28;20602;-78
2021/03/20 04:19:02;;;;;;;4.07;3.03;;;;;6.80;102824.00;;;;5088040;28;20194;-77
2021/03/20 04:21:38;;;;;;;4.80;3.25;;;;;6.80;102826.00;;;;5088897;28;20668;-77
2021/03/20 04:24:10;;;;;;;4.90;3.03;;;;;6.80;102827.00;;;;5088531;28;20285;-77
2021/03/20 04:26:46;;;;;;;4.03;2.90;;;;;6.70;102828.00;;;;5089177;28;20659;-77
2021/03/20 04:29:22;;;;;;;3.92;2.95;;;;;6.70;102822.00;;;;5081711;28;20233;-78
2021/03/20 04:31:53;;;;;;;4.22;2.65;;;;;6.70;102818.00;;;;5068026;28;20202;-77
2021/03/20 04:34:26;;;;;;;5.20;2.78;;;;;6.70;102819.00;;;;5082537;28;20301;-77
2021/03/20 04:36:58;;;;;;;3.60;2.70;;;;;6.70;102829.00;;;;5088392;28;20204;-77
2021/03/20 04:39:28;;;;;;;4.78;2.70;;;;;6.70;102825.00;;;;5089093;28;20202;-77
2021/03/20 04:41:56;;;;;;;3.65;2.60;;;;;6.70;102835.00;;;;5088752;28;20523;-77
2021/03/20 04:44:23;;;;;;;3.95;2.88;;;;;6.70;102832.00;;;;5089170;28;20247;-77
2021/03/20 04:46:50;;;;;;;5.22;2.70;;;;;6.70;102838.00;;;;5069417;28;20214;-77
2021/03/20 04:49:33;;;;;;;4.65;2.67;;;;;6.60;102834.00;;;;5080055;28;20237;-77
2021/03/20 04:52:07;;;;;;;3.35;2.70;;;;;6.60;102833.00;;;;5079640;28;20214;-77
2021/03/20 04:54:34;;;;;;;4.32;2.63;;;;;6.70;102838.00;;;;5068406;28;20297;-77
2021/03/20 04:57:11;;;;;;;4.00;2.78;;;;;6.60;102830.00;;;;5068466;28;20195;-77
2021/03/20 04:59:47;;;;;;;5.45;2.70;;;;;6.60;102843.00;;;;5069072;28;20205;-77
2021/03/20 05:02:20;;;;;;;3.15;2.33;;;;;6.60;102839.00;;;;5084892;28;20202;-77
2021/03/20 05:04:49;;;;;;;4.10;2.88;;;;;6.60;102837.00;;;;5067850;28;20195;-77
2021/03/20 05:07:19;;;;;;;3.53;2.42;;;;;6.60;102834.00;;;;5079986;28;20202;-78
2021/03/20 05:09:46;;;;;;;3.50;2.80;;;;;6.60;102835.00;;;;5067205;28;20223;-77
2021/03/20 05:12:18;;;;;;;3.88;2.80;;;;;6.60;102842.00;;;;5068724;28;20206;-77
2021/03/20 05:14:52;;;;;;;4.00;2.78;;;;;6.60;102844.00;;;;5085738;28;20190;-77
2021/03/20 05:17:21;;;;;;;3.40;2.72;;;;;6.60;102843.00;;;;5087065;28;20265;-77
2021/03/20 05:19:48;;;;;;;3.63;2.72;;;;;6.60;102844.00;;;;5067821;28;20652;-77
2021/03/20 05:22:21;;;;;;;4.40;3.30;;;;;6.50;102839.00;;;;5068238;28;20202;-77
2021/03/20 05:24:49;;;;;;;3.95;2.55;;;;;6.50;102840.00;;;;5086356;28;20222;-77
2021/03/20 05:27:20;;;;;;;3.05;2.63;;;;;6.50;102847.00;;;;5088408;28;20218;-77
2021/03/20 05:29:47;;;;;;;5.45;3.17;;;;;6.50;102848.00;;;;5088194;28;20263;-77
2021/03/20 05:32:16;;;;;;;4.18;2.85;;;;;6.50;102842.00;;;;5086218;28;21703;-77
2021/03/20 05:34:44;;;;;;;3.55;2.65;;;;;6.50;102845.00;;;;5088095;28;20232;-77
2021/03/20 05:37:22;;;;;;;3.90;2.50;;;;;6.50;102851.00;;;;5087947;28;20202;-77
2021/03/20 05:39:49;;;;;;;3.30;2.53;;;;;6.50;102838.00;;;;5089089;28;20690;-77
2021/03/20 05:42:27;;;;;;;3.40;2.40;;;;;6.50;102839.00;;;;5088355;28;20206;-77
2021/03/20 05:45:06;;;;;;;5.45;2.47;;;;;6.50;102843.00;;;;5086320;28;20203;-77
2021/03/20 05:47:47;;;;;;;3.08;2.30;;;;;6.40;102837.00;;;;5068071;28;20199;-77
2021/03/20 05:50:26;;;;;;;4.20;2.60;;;;;6.50;102844.00;;;;5067745;28;20219;-77
2021/03/20 05:53:06;;;;;;;4.03;2.60;;;;;6.40;102836.00;;;;5067494;28;20286;-77
2021/03/20 05:55:39;;;;;;;3.60;2.55;;;;;6.40;102829.00;;;;5068302;28;20190;-77
2021/03/20 05:58:23;;;;;;;4.22;2.58;;;;;6.40;102829.00;;;;5072817;28;20989;-77
2021/03/20 06:00:57;;;;;;;4.13;2.60;;;;;6.40;102832.00;;;;5087494;28;20206;-77
2021/03/20 06:03:54;;;;;;;4.60;2.67;;;;;6.30;102830.00;;;;5078992;28;20206;-77
2021/03/20 06:06:36;;;;;;;2.95;2.15;;;;;6.40;102839.00;;;;5033991;28;20245;-78
2021/03/20 06:09:16;;;;;;;3.15;2.35;;;;;6.40;102846.00;;;;5091093;28;20235;-77
2021/03/20 06:12:00;;;;;;;5.53;2.70;;;;;6.40;102842.00;;;;5071827;28;20195;-77
2021/03/20 06:14:45;;;;;;;3.85;2.85;;;;;6.50;102844.00;;;;5089640;28;20260;-77
2021/03/20 06:17:19;;;;;;;3.95;2.75;;;;;6.60;102843.00;;;;5082338;28;20202;-77
2021/03/20 06:20:02;;;;;;;4.30;2.90;;;;;6.60;102853.00;;;;5087169;28;20203;-78
2021/03/20 06:22:54;;;;;;;5.25;3.20;;;;;6.60;102852.00;;;;5079239;28;20195;-77
2021/03/20 06:25:53;;;;;;;4.47;3.10;;;;;6.60;102858.00;;;;5085999;28;20193;-77
2021/03/20 06:28:25;;;;;;;4.60;2.83;;;;;6.70;102862.00;;;;5074761;28;20600;-77
2021/03/20 06:30:58;;;;;;;3.40;2.58;;;;;6.70;102863.00;;;;5089112;28;20226;-77
2021/03/20 06:33:28;;;;;;;3.72;2.83;;;;;6.80;102868.00;;;;5087844;28;20206;-77
2021/03/20 06:35:59;;;;;;;4.72;2.67;;;;;6.80;102876.00;;;;5090798;28;20326;-76
2021/03/20 06:38:35;;;;;;;4.78;3.15;;;;;6.80;102890.00;;;;5087379;28;20186;-77
2021/03/20 06:41:14;;;;;;;4.50;2.85;;;;;6.90;102888.00;;;;5077382;28;20615;-77
2021/03/20 06:43:47;;;;;;;5.18;2.95;;;;;7.00;102879.00;;;;5079090;28;20259;-77
2021/03/20 06:46:17;;;;;;;5.45;3.15;;;;;7.10;102886.00;;;;5078658;28;20557;-77
2021/03/20 06:48:46;;;;;;;6.38;2.92;;;;;7.20;102888.00;;;;5079822;28;20235;-77
2021/03/20 06:51:13;;;;;;;3.97;3.22;;;;;7.30;102896.00;;;;5080539;28;20272;-77
2021/03/20 06:53:50;;;;;;;3.97;2.95;;;;;7.30;102890.00;;;;5090279;28;21246;-77
2021/03/20 06:56:19;;;;;;;4.32;3.42;;;;;7.50;102881.00;;;;5090209;28;20247;-77
2021/03/20 06:58:46;;;;;;;3.95;2.58;;;;;7.60;102900.00;;;;5079101;28;20303;-78
2021/03/20 07:01:24;;;;;;;4.22;2.80;;;;;7.70;102896.00;;;;5080323;28;20203;-78
2021/03/20 07:04:15;;;;;;;3.70;2.80;;;;;7.70;102906.00;;;;5090122;28;20194;-77
2021/03/20 07:06:56;;;;;;;4.47;2.72;;;;;7.90;102901.00;;;;5081717;28;20202;-78
2021/03/20 07:09:24;;;;;;;3.67;2.65;;;;;8.10;102904.00;;;;5078601;28;20238;-77
2021/03/20 07:12:07;;;;;;;4.20;2.28;;;;;8.10;102901.00;;;;5078817;28;20201;-77
2021/03/20 07:14:38;;;;;;;2.88;2.35;;;;;8.40;102895.00;;;;5089621;28;20205;-77
2021/03/20 07:17:07;;;;;;;4.13;2.58;;;;;8.50;102903.00;;;;5086576;28;20194;-77
2021/03/20 07:19:34;;;;;;;4.60;2.95;;;;;8.70;102899.00;;;;5088739;28;20202;-77
2021/03/20 07:22:07;;;;;;;3.85;3.00;;;;;8.80;102905.00;;;;5078849;28;20576;-77
2021/03/20 07:24:37;;;;;;;4.80;2.58;;;;;8.90;102904.00;;;;5087635;28;20672;-78
2021/03/20 07:27:18;;;;;;;3.53;2.55;;;;;9.00;102898.00;;;;5072003;28;20248;-77
2021/03/20 07:29:48;;;;;;;3.78;2.90;;;;;9.10;102908.00;;;;5074388;28;20227;-77
2021/03/20 07:32:19;;;;;;;3.30;2.72;;;;;9.30;102908.00;;;;5077472;28;20210;-77
2021/03/20 07:34:47;;;;;;;4.75;3.00;;;;;9.40;102901.00;;;;5087469;28;20225;-78
2021/03/20 07:37:23;;;;;;;3.22;2.47;;;;;9.50;102901.00;;;;5068623;28;20199;-77
2021/03/20 07:39:51;;;;;;;2.65;2.28;;;;;9.60;102887.00;;;;5072549;28;20206;-78
2021/03/20 07:42:30;;;;;;;3.05;2.50;;;;;9.60;102897.00;;;;5088642;28;20207;-78
2021/03/20 07:44:59;;;;;;;3.45;2.80;;;;;9.80;102895.00;;;;5088004;28;20194;-78
2021/03/20 07:47:28;;;;;;;3.97;2.92;;;;;9.90;102900.00;;;;5081249;28;20182;-77
2021/03/20 07:50:25;;;;;;;3.33;2.63;;;;;9.90;102900.00;;;;5088865;28;20218;-78
2021/03/20 07:53:12;;;;;;;4.45;2.22;;;;;10.10;102905.00;;;;5088308;28;20195;-78
2021/03/20 07:56:10;;;;;;;2.70;2.20;;;;;10.20;102906.00;;;;5089605;28;20698;-78
2021/03/20 07:58:44;;;;;;;3.42;2.40;;;;;10.30;102907.00;;;;5084025;28;20199;-78
2021/03/20 08:01:31;;;;;;;2.30;1.80;;;;;10.40;102911.00;;;;5089970;28;20637;-78
2021/03/20 08:03:59;;;;;;;1.83;1.40;;;;;10.50;102905.00;;;;5083872;28;20495;-78
2021/03/20 08:06:28;;;;;;;2.72;1.95;;;;;10.60;102895.00;;;;5077087;28;20220;-79
2021/03/20 08:09:28;;;;;;;2.67;2.00;;;;;10.70;102895.00;;;;5068890;28;20195;-78
2021/03/20 08:12:11;;;;;;;1.92;1.60;;;;;10.80;102891.00;;;;5025322;28;20367;-78
2021/03/20 08:14:44;;;;;;;2.67;1.73;;;;;10.90;102901.00;;;;5014185;28;20667;-78
2021/03/20 08:17:14;;;;;;;3.20;1.80;;;;;11.00;102905.00;;;;5043981;28;20207;-79
2021/03/20 08:19:41;;;;;;;2.47;1.98;;;;;11.10;102903.00;;;;5082564;28;20194;-78
2021/03/20 08:22:38;;;;;;;3.03;1.98;;;;;11.10;102905.00;;;;5078639;28;20204;-78
2021/03/20 08:25:28;;;;;;;2.25;1.80;;;;;11.20;102904.00;;;;5070024;28;20683;-78
2021/03/20 08:28:15;;;;;;;2.72;1.92;;;;;11.30;102903.00;;;;5084920;28;20237;-78
2021/03/20 08:30:59;;;;;;;3.53;1.67;;;;;11.40;102900.00;;;;5083174;28;20226;-79
2021/03/20 08:33:40;;;;;;;2.65;2.15;;;;;11.50;102904.00;;;;5080475;28;20202;-78
2021/03/20 08:36:16;;;;;;;2.78;2.30;;;;;11.60;102906.00;;;;5086393;28;20288;-79
2021/03/20 08:38:54;;;;;;;2.42;2.10;;;;;11.70;102910.00;;;;5080151;28;20196;-79
2021/03/20 08:41:31;;;;;;;3.97;1.85;;;;;11.70;102910.00;;;;5073736;28;20191;-78
2021/03/20 08:44:17;;;;;;;2.95;1.85;;;;;11.80;102912.00;;;;5074763;28;20194;-78
2021/03/20 08:46:58;;;;;;;2.70;2.22;;;;;11.90;102911.00;;;;5078178;28;20243;-79
2021/03/20 08:49:36;;;;;;;2.42;1.90;;;;;12.00;102914.00;;;;5077896;28;20230;-79
2021/03/20 08:52:16;;;;;;;5.90;2.17;;;;;12.00;102906.00;;;;5087349;28;20198;-79
2021/03/20 08:55:06;;;;;;;5.03;2.10;;;;;12.00;102920.00;;;;5083477;28;20201;-78
2021/03/20 08:57:43;;;;;;;3.47;2.20;;;;;12.00;102914.00;;;;5077354;28;20581;-79
2021/03/20 09:00:17;;;;;;;3.83;2.20;;;;;12.10;102918.00;;;;5068264;28;20668;-79
2021/03/20 09:02:46;;;;;;;3.25;2.33;;;;;12.10;102912.00;;;;5071830;28;20210;-79
2021/03/20 09:05:23;;;;;;;3.15;2.13;;;;;12.10;102921.00;;;;5079168;28;20194;-82
2021/03/20 09:07:54;;;;;;;3.95;2.83;;;;;12.10;102918.00;;;;5073408;28;20195;-80
2021/03/20 09:10:28;;;;;;;2.50;2.13;;;;;12.10;102918.00;;;;5068295;28;20226;-80
2021/03/20 09:13:02;;;;;;;2.65;1.90;;;;;12.20;102928.00;;;;5071238;28;20198;-81
2021/03/20 09:15:31;;;;;;;3.83;1.80;;;;;12.20;102915.00;;;;5079630;28;20228;-79
2021/03/20 09:18:01;;;;;;;2.42;1.77;;;;;12.20;102914.00;;;;5076999;28;20215;-80
2021/03/20 09:20:38;;;;;;;1.98;1.42;;;;;12.20;102910.00;;;;5088333;28;20205;-79
2021/03/20 09:23:06;;;;;;;1.95;1.15;;;;;12.20;102913.00;;;;5088103;28;20202;-79
2021/03/20 09:25:37;;;;;;;1.98;1.20;;;;;12.20;102911.00;;;;5076677;28;20203;-79
2021/03/20 09:28:12;;;;;;;2.20;1.08;;;;;12.20;102913.00;;;;5080682;28;20194;-80
2021/03/20 09:30:42;;;;;;;1.42;1.00;;;;;12.30;102912.00;;;;5087346;28;20312;-79
2021/03/20 09:33:32;;;;;;;1.83;1.20;;;;;12.20;102911.00;;;;5088214;28;20201;-79
2021/03/20 09:36:01;;;;;;;1.38;1.10;;;;;12.30;102908.00;;;;5087525;28;20218;-79
2021/03/20 09:38:46;;;;;;;2.13;0.85;;;;;12.20;102904.00;;;;5090053;28;20202;-79
2021/03/20 09:41:34;;;;;;;1.60;0.82;;;;;12.30;102904.00;;;;5088859;28;20194;-79
2021/03/20 09:44:25;;;;;;;1.67;1.00;;;;;12.30;102912.00;;;;5091348;28;20201;-76
2021/03/20 09:46:55;;;;;;;1.77;0.98;;;;;12.50;102904.00;;;;5075850;28;20674;-78
2021/03/20 09:49:58;;;;;;;1.40;1.15;;;;;12.50;102909.00;;;;5090788;28;20715;-76
2021/03/20 09:52:51;;;;;;;1.58;1.30;;;;;12.50;102908.00;;;;5084895;28;20244;-77
2021/03/20 09:55:46;;;;;;;2.10;1.30;;;;;12.60;102901.00;;;;5029901;28;20239;-78
2021/03/20 09:58:39;;;;;;;1.15;0.85;;;;;12.70;102888.00;;;;5076078;28;20195;-76
2021/03/20 10:01:43;;;;;;;2.80;0.95;;;;;12.80;102896.00;;;;5075143;28;20254;-75
2021/03/20 10:04:29;;;;;;;1.83;0.75;;;;;12.80;102903.00;;;;5077077;28;20202;-78
2021/03/20 10:07:27;;;;;;;1.63;1.10;;;;;12.90;102904.00;;;;5087721;28;20204;-76
2021/03/20 10:09:59;;;;;;;1.20;0.90;;;;;13.10;102898.00;;;;5086379;28;20234;-77
2021/03/20 10:12:34;;;;;;;1.15;0.80;;;;;13.10;102898.00;;;;5087259;28;20206;-77
2021/03/20 10:15:14;;;;;;;1.00;0.90;;;;;13.10;102897.00;;;;5090015;28;20197;-78
2021/03/20 10:18:00;;;;;;;1.40;0.95;;;;;13.10;102901.00;;;;5091013;28;20198;-78
2021/03/20 10:20:39;;;;;;;1.55;0.82;;;;;13.10;102901.00;;;;5091152;28;21337;-78
2021/03/20 10:23:13;;;;;;;1.65;0.98;;;;;13.20;102901.00;;;;5081366;28;20220;-77
2021/03/20 10:25:46;;;;;;;1.25;0.90;;;;;13.30;102897.00;;;;5090657;28;20238;-77
2021/03/20 10:28:15;;;;;;;1.77;1.25;;;;;13.40;102900.00;;;;5090395;28;20194;-77
2021/03/20 10:30:54;;;;;;;1.35;1.02;;;;;13.40;102882.00;;;;5087914;28;20232;-77
2021/03/20 10:33:27;;;;;;;1.25;0.85;;;;;13.50;102874.00;;;;5084557;28;20202;-77
2021/03/20 10:36:08;;;;;;;1.27;1.05;;;;;13.50;102876.00;;;;5089623;28;20245;-77
2021/03/20 10:38:35;;;;;;;1.98;1.33;;;;;13.60;102873.00;;;;5071781;28;20199;-77
2021/03/20 10:41:07;;;;;;;2.00;1.40;;;;;13.60;102867.00;;;;5090717;28;20194;-78
2021/03/20 10:43:39;;;;;;;1.52;1.25;;;;;13.70;102864.00;;;;5091043;28;20675;-77
2021/03/20 10:46:07;;;;;;;2.78;1.42;;;;;13.80;102862.00;;;;5086220;28;20199;-78
2021/03/20 10:48:34;;;;;;;1.77;1.15;;;;;13.90;102858.00;;;;5086674;28;20242;-78
2021/03/20 10:51:04;;;;;;;2.80;1.88;;;;;14.00;102853.00;;;;5089615;28;20221;-78
2021/03/20 10:53:36;;;;;;;2.17;1.60;;;;;14.00;102859.00;;;;5090710;28;20194;-78
2021/03/20 10:56:04;;;;;;;2.28;1.42;;;;;14.10;102857.00;;;;5090390;28;20987;-78
2021/03/20 10:58:37;;;;;;;2.20;1.52;;;;;14.20;102857.00;;;;5083101;28;20648;-78
2021/03/20 11:01:04;;;;;;;2.05;1.52;;;;;14.20;102855.00;;;;5070514;28;20206;-78
2021/03/20 11:03:35;;;;;;;2.25;1.65;;;;;14.30;102845.00;;;;5070075;28;20695;-78
2021/03/20 11:06:13;;;;;;;2.60;1.88;;;;;14.30;102846.00;;;;5087490;28;20202;-78
2021/03/20 11:08:41;;;;;;;2.85;2.00;;;;;14.40;102840.00;;;;5075600;28;20198;-77
2021/03/20 11:11:15;;;;;;;2.78;1.92;;;;;14.40;102842.00;;;;5087614;28;20234;-80
2021/03/20 11:13:44;;;;;;;2.22;2.03;;;;;14.40;102839.00;;;;5090062;28;20193;-78
2021/03/20 11:16:14;;;;;;;2.72;1.90;;;;;14.40;102827.00;;;;5088731;28;20205;-79
2021/03/20 11:18:45;;;;;;;2.75;1.70;;;;;14.40;102824.00;;;;5083259;28;20209;-79
2021/03/20 11:21:21;;;;;;;2.05;1.40;;;;;14.50;102831.00;;;;5080890;28;20317;-79
2021/03/20 11:23:56;;;;;;;1.80;1.52;;;;;14.50;102826.00;;;;5083190;28;20201;-79
2021/03/20 11:26:33;;;;;;;3.38;1.70;;;;;14.60;102823.00;;;;5087586;28;20198;-79
2021/03/20 11:29:00;;;;;;;2.67;1.90;;;;;14.60;102815.00;;;;5087008;28;20690;-77
2021/03/20 11:31:28;;;;;;;2.25;1.65;;;;;14.70;102811.00;;;;5079902;28;20218;-77
2021/03/20 11:33:55;;;;;;;1.75;1.63;;;;;14.80;102821.00;;;;5079807;28;20646;-77
2021/03/20 11:36:28;;;;;;;1.75;1.40;;;;;14.80;102823.00;;;;5089453;28;20202;-77
2021/03/20 11:38:56;;;;;;;2.25;1.75;;;;;14.90;102828.00;;;;5089350;28;21188;-77
2021/03/20 11:41:30;;;;;;;1.67;1.40;;;;;14.90;102829.00;;;;5086070;28;20696;-77
2021/03/20 11:44:04;;;;;;;2.90;1.58;;;;;14.90;102818.00;;;;5077761;28;20260;-79
2021/03/20 11:46:34;;;;;;;2.75;1.92;;;;;15.00;102818.00;;;;5082425;28;20215;-79
2021/03/20 11:49:04;;;;;;;1.98;1.30;;;;;15.10;102814.00;;;;5083331;28;20230;-79
2021/03/20 11:51:35;;;;;;;2.58;1.80;;;;;15.10;102806.00;;;;5080130;28;20633;-77
2021/03/20 11:54:05;;;;;;;1.65;1.48;;;;;15.10;102804.00;;;;5072878;28;20198;-76
2021/03/20 11:56:35;;;;;;;2.00;1.40;;;;;15.10;102798.00;;;;5086890;28;20201;-77
2021/03/20 11:59:25;;;;;;;2.60;1.70;;;;;15.10;102798.00;;;;5078188;28;20190;-76
2021/03/20 12:01:52;;;;;;;1.98;1.70;;;;;15.20;102799.00;;;;5071659;28;20199;-76
2021/03/20 12:04:22;;;;;;;2.35;1.80;;;;;15.20;102801.00;;;;5077604;28;20205;-76
2021/03/20 12:06:50;;;;;;;2.63;1.88;;;;;15.30;102801.00;;;;5079794;28;20206;-76
2021/03/20 12:09:34;;;;;;;2.55;1.63;;;;;15.20;102791.00;;;;5084815;28;20240;-77
2021/03/20 12:12:02;;;;;;;1.65;1.48;;;;;15.30;102786.00;;;;5080053;28;20682;-76
2021/03/20 12:14:41;;;;;;;2.70;1.75;;;;;15.20;102784.00;;;;5089181;28;20186;-75
2021/03/20 12:17:16;;;;;;;2.63;1.98;;;;;15.30;102785.00;;;;5080038;28;20281;-75
2021/03/20 12:19:55;;;;;;;2.05;1.73;;;;;15.20;102782.00;;;;5081224;28;20190;-76
2021/03/20 12:22:42;;;;;;;5.13;2.05;;;;;15.10;102780.00;;;;5088923;28;20185;-75
2021/03/20 12:25:29;;;;;;;1.63;1.48;;;;;15.10;102780.00;;;;5088449;28;20201;-76
2021/03/20 12:28:27;;;;;;;2.65;1.75;;;;;15.10;102770.00;;;;5085673;28;20234;-76
2021/03/20 12:31:23;;;;;;;2.75;1.95;;;;;15.20;102767.00;;;;5088994;28;20225;-75
2021/03/20 12:33:51;;;;;;;2.97;1.90;;;;;15.30;102764.00;;;;5081433;28;20250;-77
2021/03/20 12:36:27;;;;;;;3.20;2.35;;;;;15.30;102758.00;;;;5084636;28;20214;-75
2021/03/20 12:38:54;;;;;;;4.05;1.95;;;;;15.40;102752.00;;;;5077255;28;20213;-75
2021/03/20 12:41:22;;;;;;;2.78;2.05;;;;;15.40;102760.00;;;;5085573;28;20191;-75
2021/03/20 12:44:06;;;;;;;2.40;2.10;;;;;15.30;102752.00;;;;5079877;28;20202;-77
2021/03/20 12:46:33;;;;;;;2.22;1.90;;;;;15.50;102737.00;;;;5085757;28;20206;-79
2021/03/20 12:49:00;;;;;;;2.72;2.22;;;;;15.60;102732.00;;;;5082489;28;20696;-80